Terminal Aerodrome Forecast
Issued by NWS

Home | Current Version | Previous Version | Text Only | Print | Product List | Glossary On
Versions: 1 2 3 4 5 6 7 8 9 10 11 12 13 14 15 16 17 18 19 20 21
460
FTUS41 KBTV 190907 AAA
TAFSLK
TAF AMD
KSLK 190907Z 1909/2006 24007KT 6SM BR VCSH OVC014
     FM191400 22007KT P6SM OVC020
     FM200300 22010G16KT P6SM BKN040=

USA.gov is the U.S. government's official web portal to all federal, state and local government web resources and services.